Time;durP1;ratioP1;P1;durP2;ratioP2;P2;SDS_P1;SDS_P2;PMS_P1;PMS_P2;Temp;Humidity;BMP_temperature;BMP_pressure;BME280_temperature;BME280_humidity;BME280_pressure;Samples;Min_cycle;Max_cycle;Signal;HPM_P1;HPM_P2
2023/04/06 00:01:25;;;;;;;12.48;7.10;;;;;;;;;;5074871;28;20577;-72
2023/04/06 00:03:52;;;;;;;10.25;6.93;;;;;;;;;;5074219;28;20187;-72
2023/04/06 00:06:22;;;;;;;9.18;6.88;;;;;;;;;;5074683;28;20231;-72
2023/04/06 00:08:51;;;;;;;15.82;7.15;;;;;;;;;;5073740;28;20187;-72
2023/04/06 00:11:19;;;;;;;9.30;6.88;;;;;;;;;;5074611;28;20682;-74
2023/04/06 00:13:47;;;;;;;7.90;6.43;;;;;;;;;;5074105;28;20183;-73
2023/04/06 00:16:14;;;;;;;9.55;6.53;;;;;;;;;;5074568;28;20191;-72
2023/04/06 00:18:42;;;;;;;8.65;6.78;;;;;;;;;;5074189;28;20233;-72
2023/04/06 00:21:09;;;;;;;9.95;6.80;;;;;;;;;;5073758;28;20220;-72
2023/04/06 00:23:38;;;;;;;9.82;6.97;;;;;;;;;;5074147;28;20185;-72
2023/04/06 00:26:06;;;;;;;11.40;7.78;;;;;;;;;;5074365;28;20239;-71
2023/04/06 00:28:33;;;;;;;10.70;7.38;;;;;;;;;;5073774;28;21180;-72
2023/04/06 00:31:00;;;;;;;10.70;7.10;;;;;;;;;;5074205;28;20197;-72
2023/04/06 00:33:28;;;;;;;10.45;7.40;;;;;;;;;;5073804;28;20248;-72
2023/04/06 00:35:55;;;;;;;10.68;6.93;;;;;;;;;;5074205;28;20209;-72
2023/04/06 00:38:23;;;;;;;10.38;7.82;;;;;;;;;;5073728;28;20647;-72
2023/04/06 00:40:52;;;;;;;10.38;6.68;;;;;;;;;;5073865;28;20199;-72
2023/04/06 00:43:20;;;;;;;9.88;7.53;;;;;;;;;;5073481;28;20644;-72
2023/04/06 00:45:47;;;;;;;8.68;6.63;;;;;;;;;;5074094;28;20190;-71
2023/04/06 00:48:14;;;;;;;11.57;8.63;;;0.90;53.70;;;;;;5073730;28;20197;-72
2023/04/06 00:50:41;;;;;;;9.18;6.68;;;0.40;57.10;;;;;;5053227;28;20192;-72
2023/04/06 00:53:09;;;;;;;9.52;7.00;;;0.40;56.80;;;;;;5064469;28;20221;-72
2023/04/06 00:55:36;;;;;;;13.27;7.72;;;0.40;56.50;;;;;;5073875;28;20221;-72
2023/04/06 00:58:05;;;;;;;9.50;6.97;;;0.40;56.60;;;;;;5073144;28;20193;-72
2023/04/06 01:00:33;;;;;;;11.38;7.50;;;0.30;56.60;;;;;;5073155;28;20183;-72
2023/04/06 01:03:01;;;;;;;11.13;7.97;;;0.20;57.10;;;;;;5073207;28;20730;-72
2023/04/06 01:05:28;;;;;;;16.88;7.95;;;0.20;57.30;;;;;;5073555;28;20194;-72
2023/04/06 01:07:55;;;;;;;12.05;7.97;;;0.20;57.40;;;;;;5072938;28;20180;-72
2023/04/06 01:10:25;;;;;;;10.45;7.97;;;0.20;57.40;;;;;;5073062;28;20271;-72
2023/04/06 01:12:54;;;;;;;11.43;7.45;;;0.20;57.40;;;;;;5072973;28;20182;-72
2023/04/06 01:15:24;;;;;;;12.48;6.90;;;0.20;57.40;;;;;;5073521;28;20611;-72
2023/04/06 01:17:53;;;;;;;10.05;6.72;;;0.20;57.30;;;;;;5072436;28;20541;-72
2023/04/06 01:20:20;;;;;;;10.50;6.70;;;0.20;57.10;;;;;;5072840;28;20646;-72
2023/04/06 01:22:49;;;;;;;9.77;7.28;;;0.20;57.00;;;;;;5072661;28;20213;-72
2023/04/06 01:25:16;;;;;;;12.15;7.50;;;0.10;56.70;;;;;;5073307;28;20562;-72
2023/04/06 01:27:43;;;;;;;9.85;7.15;;;0.10;57.00;;;;;;5072676;28;20193;-72
2023/04/06 01:30:11;;;;;;;12.15;7.97;;;0.00;57.30;;;;;;5072265;28;20197;-72
2023/04/06 01:32:38;;;;;;;11.50;7.97;;;0.00;57.50;;;;;;5072797;28;20240;-72
2023/04/06 01:35:06;;;;;;;11.05;7.72;;;0.00;57.60;;;;;;5073012;28;20190;-72
2023/04/06 01:37:33;;;;;;;9.13;6.50;;;0.00;57.90;;;;;;5072648;28;20182;-72
2023/04/06 01:40:02;;;;;;;9.32;6.40;;;0.00;58.00;;;;;;5072661;28;20197;-72
2023/04/06 01:42:30;;;;;;;13.77;7.93;;;0.10;58.20;;;;;;5072090;28;20221;-72
2023/04/06 01:45:01;;;;;;;10.07;7.15;;;0.10;58.40;;;;;;5072824;28;20530;-72
2023/04/06 01:47:29;;;;;;;12.80;8.27;;;0.10;58.30;;;;;;5072534;28;20555;-72
2023/04/06 01:49:56;;;;;;;9.98;7.40;;;0.00;57.60;;;;;;5071697;28;20185;-72
2023/04/06 01:52:23;;;;;;;10.13;7.18;;;0.00;57.30;;;;;;5072586;28;20191;-71
2023/04/06 01:54:50;;;;;;;12.02;7.85;;;0.00;57.20;;;;;;5072181;28;20209;-72
2023/04/06 01:57:18;;;;;;;10.32;6.60;;;-0.10;57.80;;;;;;5072504;28;20190;-72
2023/04/06 01:59:46;;;;;;;11.48;8.05;;;-0.20;58.30;;;;;;5071830;28;20231;-72
2023/04/06 02:02:13;;;;;;;8.88;7.28;;;-0.30;58.90;;;;;;5072400;28;20568;-72
2023/04/06 02:04:41;;;;;;;9.13;7.38;;;-0.30;59.40;;;;;;5072005;28;20194;-73
2023/04/06 02:07:08;;;;;;;8.27;7.45;;;-0.40;59.70;;;;;;5072546;28;20193;-72
2023/04/06 02:09:35;;;;;;;10.10;6.50;;;-0.40;60.10;;;;;;5071913;28;20226;-72
2023/04/06 02:12:03;;;;;;;9.30;7.30;;;-0.40;60.40;;;;;;5072539;28;20192;-72
2023/04/06 02:14:32;;;;;;;13.23;7.50;;;-0.40;60.00;;;;;;5072087;28;20189;-74
2023/04/06 02:16:59;;;;;;;10.75;8.20;;;-0.40;60.00;;;;;;5072464;28;20219;-72
2023/04/06 02:19:27;;;;;;;10.00;7.18;;;-0.40;59.40;;;;;;5071776;28;20190;-72
2023/04/06 02:21:55;;;;;;;10.25;6.50;;;-0.40;59.60;;;;;;5072373;28;20231;-72
2023/04/06 02:24:22;;;;;;;10.20;6.13;;;-0.40;59.80;;;;;;5068934;28;20644;-72
2023/04/06 02:26:50;;;;;;;9.05;7.10;;;-0.50;59.90;;;;;;5072313;28;20191;-72
2023/04/06 02:29:18;;;;;;;11.55;7.32;;;-0.40;59.90;;;;;;5071789;28;20189;-72
2023/04/06 02:31:47;;;;;;;7.90;5.88;;;-0.40;59.90;;;;;;5071306;28;20182;-72
2023/04/06 02:34:17;;;;;;;11.15;6.50;;;-0.40;60.10;;;;;;5072360;28;20193;-72
2023/04/06 02:36:44;;;;;;;9.45;7.15;;;-0.40;60.60;;;;;;5071877;28;20189;-73
2023/04/06 02:39:12;;;;;;;13.05;7.47;;;-0.40;60.90;;;;;;5072088;28;20270;-72
2023/04/06 02:41:39;;;;;;;9.75;6.15;;;-0.40;61.00;;;;;;5071540;28;20559;-72
2023/04/06 02:44:08;;;;;;;10.30;7.55;;;-0.30;60.90;;;;;;5071863;28;20189;-72
2023/04/06 02:46:36;;;;;;;7.97;6.32;;;-0.40;61.20;;;;;;5071652;28;20185;-72
2023/04/06 02:49:05;;;;;;;10.75;7.28;;;-0.50;61.80;;;;;;5071932;28;20557;-72
2023/04/06 02:51:32;;;;;;;9.30;6.80;;;-0.50;61.80;;;;;;5071576;28;20547;-72
2023/04/06 02:54:00;;;;;;;12.07;7.38;;;-0.50;62.20;;;;;;5071668;28;20284;-72
2023/04/06 02:56:28;;;;;;;8.60;6.45;;;-0.40;62.20;;;;;;5071217;28;20186;-72
2023/04/06 02:58:55;;;;;;;10.88;7.00;;;-0.40;62.00;;;;;;5071954;28;20247;-72
2023/04/06 03:01:22;;;;;;;11.20;7.50;;;-0.30;61.90;;;;;;5071027;28;20189;-71
2023/04/06 03:03:50;;;;;;;8.55;6.68;;;-0.30;61.40;;;;;;5071847;28;20575;-72
2023/04/06 03:06:18;;;;;;;8.18;7.10;;;-0.30;61.60;;;;;;5071817;28;20218;-72
2023/04/06 03:08:47;;;;;;;11.82;8.20;;;-0.30;61.60;;;;;;5071312;28;20187;-72
2023/04/06 03:11:14;;;;;;;9.27;6.45;;;-0.30;61.80;;;;;;5071527;28;20671;-71
2023/04/06 03:13:41;;;;;;;10.18;7.32;;;-0.20;61.80;;;;;;5074818;28;20194;-71
2023/04/06 03:16:09;;;;;;;10.13;6.40;;;-0.20;61.60;;;;;;5075710;28;20217;-72
2023/04/06 03:18:36;;;;;;;9.23;6.80;;;-0.20;61.30;;;;;;5075724;28;20228;-72
2023/04/06 03:21:04;;;;;;;10.57;7.18;;;-0.20;61.20;;;;;;5075260;28;20239;-72
2023/04/06 03:23:33;;;;;;;9.20;7.85;;;-0.20;61.30;;;;;;5075157;28;20213;-72
2023/04/06 03:26:00;;;;;;;12.27;7.97;;;-0.20;61.30;;;;;;5075272;28;20843;-72
2023/04/06 03:28:27;;;;;;;8.88;7.47;;;-0.20;61.50;;;;;;5075008;28;20182;-72
2023/04/06 03:30:55;;;;;;;8.95;6.47;;;-0.20;61.70;;;;;;5074800;28;20236;-72
2023/04/06 03:33:22;;;;;;;9.30;6.80;;;-0.20;61.90;;;;;;5074623;28;20190;-72
2023/04/06 03:35:50;;;;;;;9.45;6.47;;;-0.30;62.00;;;;;;5075057;28;20186;-72
2023/04/06 03:38:17;;;;;;;7.95;6.35;;;-0.20;62.20;;;;;;5075197;28;20228;-72
2023/04/06 03:40:46;;;;;;;11.02;7.10;;;-0.20;62.10;;;;;;5074505;28;20177;-72
2023/04/06 03:43:13;;;;;;;8.98;6.40;;;-0.30;62.30;;;;;;5075080;28;20287;-72
2023/04/06 03:45:40;;;;;;;12.70;7.55;;;-0.30;61.80;;;;;;5074932;28;20251;-71
2023/04/06 03:48:08;;;;;;;11.80;7.68;;;-0.30;61.50;;;;;;5075100;28;20281;-72
2023/04/06 03:50:35;;;;;;;11.18;8.00;;;-0.30;61.60;;;;;;5074502;28;20313;-71
2023/04/06 03:53:03;;;;;;;11.23;7.72;;;-0.40;61.50;;;;;;5074667;28;20546;-71
2023/04/06 03:55:31;;;;;;;10.20;7.78;;;-0.40;61.80;;;;;;5074828;28;20193;-71
2023/04/06 03:58:00;;;;;;;9.25;6.57;;;-0.50;61.60;;;;;;5074141;28;20185;-71
2023/04/06 04:00:28;;;;;;;9.10;7.18;;;-0.50;61.30;;;;;;5074235;28;20273;-71
2023/04/06 04:02:55;;;;;;;8.60;6.75;;;-0.50;61.50;;;;;;5074384;28;20206;-71
2023/04/06 04:05:24;;;;;;;9.38;6.90;;;-0.50;61.60;;;;;;5074871;28;20548;-72
2023/04/06 04:07:52;;;;;;;12.13;7.28;;;-0.60;61.60;;;;;;5074174;28;20186;-71
2023/04/06 04:10:20;;;;;;;10.35;6.57;;;-0.60;61.70;;;;;;5072832;28;20217;-72
2023/04/06 04:12:50;;;;;;;11.07;7.25;;;-0.60;61.50;;;;;;5074671;28;20189;-72
2023/04/06 04:15:19;;;;;;;10.15;6.95;;;-0.60;61.30;;;;;;5074137;28;20190;-72
2023/04/06 04:17:48;;;;;;;10.25;6.78;;;-0.60;61.40;;;;;;5074790;28;20192;-72
2023/04/06 04:20:18;;;;;;;9.93;6.38;;;-0.70;61.10;;;;;;5074190;28;20232;-72
2023/04/06 04:22:46;;;;;;;11.43;7.22;;;-0.70;61.40;;;;;;5074535;28;20217;-72
2023/04/06 04:25:13;;;;;;;11.20;7.03;;;-0.70;62.10;;;;;;5072921;28;20212;-73
2023/04/06 04:27:40;;;;;;;9.23;6.65;;;-0.70;62.40;;;;;;5074290;28;20186;-71
2023/04/06 04:30:09;;;;;;;9.32;5.88;;;-0.70;61.20;;;;;;5074604;28;20193;-71
2023/04/06 04:32:38;;;;;;;10.55;6.40;;;-0.70;60.40;;;;;;5073775;28;20289;-72
2023/04/06 04:35:05;;;;;;;9.75;5.95;;;-0.70;60.40;;;;;;5073861;28;20228;-71
2023/04/06 04:37:34;;;;;;;12.63;7.90;;;-0.80;60.50;;;;;;5073774;28;20190;-72
2023/04/06 04:40:02;;;;;;;9.93;7.65;;;-0.90;61.60;;;;;;5073880;28;20275;-72
2023/04/06 04:42:30;;;;;;;9.40;6.82;;;-0.80;62.30;;;;;;5074227;28;20226;-71
2023/04/06 04:44:57;;;;;;;13.55;7.30;;;-0.90;63.70;;;;;;5073347;28;20186;-71
2023/04/06 04:47:24;;;;;;;16.38;7.35;;;-0.90;63.00;;;;;;5074001;28;20204;-71
2023/04/06 04:49:54;;;;;;;11.85;8.25;;;-0.80;63.50;;;;;;5073806;28;20266;-72
2023/04/06 04:52:22;;;;;;;11.95;8.18;;;-0.80;63.60;;;;;;5074038;28;20198;-74
2023/04/06 04:54:49;;;;;;;11.27;7.60;;;-0.90;62.80;;;;;;5073762;28;20212;-72
2023/04/06 04:57:16;;;;;;;9.80;7.70;;;-0.80;62.70;;;;;;5073816;28;20186;-71
2023/04/06 04:59:44;;;;;;;14.38;7.95;;;-0.80;62.40;;;;;;5073470;28;20641;-72
2023/04/06 05:02:11;;;;;;;12.48;6.88;;;-0.80;62.00;;;;;;5073726;28;20243;-73
2023/04/06 05:04:38;;;;;;;10.23;7.15;;;-0.80;61.80;;;;;;5072938;28;20221;-72
2023/04/06 05:07:09;;;;;;;13.07;6.35;;;-0.70;61.70;;;;;;5073661;28;20883;-72
2023/04/06 05:09:37;;;;;;;10.68;7.07;;;-0.70;60.80;;;;;;5072513;28;20213;-72
2023/04/06 05:12:05;;;;;;;8.07;6.30;;;-0.80;60.30;;;;;;5073542;28;20185;-72
2023/04/06 05:14:32;;;;;;;9.45;6.13;;;-0.90;60.90;;;;;;5072574;28;20599;-71
2023/04/06 05:17:00;;;;;;;8.57;5.95;;;-0.90;62.10;;;;;;5073420;28;20244;-71
2023/04/06 05:19:27;;;;;;;9.00;6.30;;;-0.90;62.60;;;;;;5072795;28;20197;-71
2023/04/06 05:21:55;;;;;;;12.18;7.43;;;-0.90;63.60;;;;;;5073307;28;20189;-72
2023/04/06 05:24:25;;;;;;;12.82;7.93;;;-0.80;64.50;;;;;;5072622;28;20247;-72
2023/04/06 05:26:53;;;;;;;10.30;7.78;;;-0.70;64.80;;;;;;5073035;28;20200;-72
2023/04/06 05:29:20;;;;;;;13.48;8.80;;;-0.70;65.10;;;;;;5072641;28;20268;-72
2023/04/06 05:31:47;;;;;;;14.10;9.20;;;-0.60;65.00;;;;;;5072740;28;20573;-72
2023/04/06 05:34:15;;;;;;;10.30;7.03;;;-0.60;64.50;;;;;;5073303;28;20221;-72
2023/04/06 05:36:42;;;;;;;12.75;7.65;;;-0.50;64.50;;;;;;5071994;28;20185;-72
2023/04/06 05:39:09;;;;;;;11.82;8.07;;;-0.50;64.30;;;;;;5073123;28;20239;-72
2023/04/06 05:41:37;;;;;;;15.43;8.90;;;-0.50;64.70;;;;;;5072947;28;20559;-73
2023/04/06 05:44:05;;;;;;;10.25;7.15;;;-0.40;64.80;;;;;;5072835;28;20226;-72
2023/04/06 05:46:32;;;;;;;9.50;7.00;;;-0.40;65.00;;;;;;5072269;28;20214;-72
2023/04/06 05:49:00;;;;;;;11.05;7.28;;;-0.30;65.30;;;;;;5072818;28;20185;-72
2023/04/06 05:51:27;;;;;;;8.80;7.90;;;-0.10;64.90;;;;;;5072416;28;20678;-72
2023/04/06 05:53:54;;;;;;;10.98;7.47;;;0.00;64.90;;;;;;5073133;28;20190;-73
2023/04/06 05:56:22;;;;;;;11.15;7.72;;;0.20;64.50;;;;;;5072217;28;20664;-72
2023/04/06 05:58:50;;;;;;;13.38;8.32;;;0.30;63.70;;;;;;5072523;28;20189;-73
2023/04/06 06:01:17;;;;;;;12.82;9.05;;;0.50;62.90;;;;;;5072396;28;20198;-72
2023/04/06 06:03:45;;;;;;;10.63;7.88;;;0.60;62.90;;;;;;5072686;28;20267;-73
2023/04/06 06:06:12;;;;;;;10.43;7.75;;;0.70;62.80;;;;;;5072326;28;20596;-73
2023/04/06 06:08:39;;;;;;;10.60;7.82;;;0.90;62.10;;;;;;5072188;28;20280;-72
2023/04/06 06:11:07;;;;;;;10.90;8.10;;;1.00;62.20;;;;;;5072520;28;20691;-73
2023/04/06 06:13:34;;;;;;;11.00;8.18;;;1.20;61.50;;;;;;5072546;28;20193;-72
2023/04/06 06:16:04;;;;;;;10.88;7.70;;;1.40;61.70;;;;;;5072242;28;20188;-73
2023/04/06 06:18:32;;;;;;;9.63;7.50;;;1.50;61.80;;;;;;5072472;28;20528;-73
2023/04/06 06:21:00;;;;;;;13.82;7.95;;;1.70;61.50;;;;;;5072276;28;20593;-72
2023/04/06 06:23:29;;;;;;;11.63;9.15;;;1.80;60.20;;;;;;5072597;28;20212;-72
2023/04/06 06:25:57;;;;;;;10.32;8.48;;;1.90;60.00;;;;;;5072297;28;20204;-72
2023/04/06 06:28:26;;;;;;;12.60;8.68;;;2.00;60.70;;;;;;5072123;28;20204;-73
2023/04/06 06:30:53;;;;;;;17.70;10.30;;;2.30;61.20;;;;;;5071957;28;20189;-72
2023/04/06 06:33:21;;;;;;;10.85;8.60;;;2.50;59.90;;;;;;5070337;28;20276;-73
2023/04/06 06:35:48;;;;;;;11.25;8.10;;;2.70;59.40;;;;;;5066113;28;20687;-73
2023/04/06 06:38:19;;;;;;;12.57;9.27;;;2.90;58.70;;;;;;5071410;28;20220;-74
2023/04/06 06:40:47;;;;;;;9.90;7.80;;;3.20;58.90;;;;;;5062151;28;20178;-73
2023/04/06 06:43:14;;;;;;;9.20;7.03;;;3.30;58.40;;;;;;5072244;28;20535;-73
2023/04/06 06:45:42;;;;;;;8.05;6.20;;;3.50;58.20;;;;;;5072035;28;20193;-73
2023/04/06 06:48:09;;;;;;;19.33;7.00;;;3.70;57.90;;;;;;5074574;28;20193;-73
2023/04/06 06:50:37;;;;;;;10.57;6.90;;;3.90;57.70;;;;;;5076040;28;20226;-73
2023/04/06 06:53:04;;;;;;;9.07;7.35;;;4.00;57.60;;;;;;5076062;28;20198;-73
2023/04/06 06:55:31;;;;;;;10.50;7.15;;;4.20;56.70;;;;;;5076358;28;20201;-73
2023/04/06 06:57:58;;;;;;;8.80;7.22;;;4.40;56.90;;;;;;5075831;28;20240;-73
2023/04/06 07:00:26;;;;;;;10.73;6.85;;;4.60;56.50;;;;;;5076403;28;20223;-72
2023/04/06 07:02:53;;;;;;;11.15;7.20;;;4.90;56.20;;;;;;5076564;28;20200;-73
2023/04/06 07:05:20;;;;;;;10.25;6.47;;;5.20;55.20;;;;;;5076673;28;20279;-73
2023/04/06 07:07:48;;;;;;;13.18;7.30;;;5.40;54.80;;;;;;5076140;28;20231;-73
2023/04/06 07:10:15;;;;;;;10.20;7.22;;;5.90;54.10;;;;;;5076283;28;20217;-73
2023/04/06 07:12:42;;;;;;;13.30;8.07;;;6.30;53.10;;;;;;5076691;28;20193;-74
2023/04/06 07:15:10;;;;;;;10.40;7.97;;;6.60;51.60;;;;;;5076536;28;20243;-73
2023/04/06 07:17:37;;;;;;;8.30;6.63;;;6.80;50.50;;;;;;5076540;28;20190;-73
2023/04/06 07:20:05;;;;;;;13.90;7.50;;;7.00;50.40;;;;;;5076475;28;20258;-73
2023/04/06 07:22:32;;;;;;;17.23;6.45;;;7.10;50.30;;;;;;5076367;28;20224;-73
2023/04/06 07:25:01;;;;;;;9.82;6.93;;;7.20;49.40;;;;;;5075839;28;20221;-74
2023/04/06 07:27:28;;;;;;;9.20;7.13;;;7.40;49.70;;;;;;5076243;28;20190;-73
2023/04/06 07:29:55;;;;;;;9.35;6.50;;;7.80;49.50;;;;;;5076194;28;20232;-73
2023/04/06 07:32:22;;;;;;;7.40;6.57;;;8.10;48.70;;;;;;5075779;28;20193;-74
2023/04/06 07:34:49;;;;;;;8.73;6.78;;;8.60;48.10;;;;;;5075879;28;20674;-74
2023/04/06 07:37:16;;;;;;;10.70;6.72;;;9.30;46.60;;;;;;5076227;28;20185;-73
2023/04/06 07:39:42;;;;;;;7.82;6.63;;;10.70;43.30;;;;;;5076174;28;20698;-73
2023/04/06 07:42:12;;;;;;;8.23;6.05;;;12.00;39.50;;;;;;5075959;28;20221;-74
2023/04/06 07:44:40;;;;;;;9.73;5.88;;;12.80;37.40;;;;;;5075880;28;20220;-73
2023/04/06 07:47:06;;;;;;;8.80;7.20;;;15.00;36.00;;;;;;5076158;28;20194;-74
2023/04/06 07:49:33;;;;;;;9.67;7.47;;;17.50;31.40;;;;;;5075954;28;20517;-74
2023/04/06 07:52:02;;;;;;;10.63;7.47;;;19.70;29.00;;;;;;5075752;28;20447;-74
2023/04/06 07:54:29;;;;;;;8.80;6.70;;;21.50;27.60;;;;;;5075615;28;20627;-74
2023/04/06 07:56:56;;;;;;;10.30;6.60;;;23.70;24.20;;;;;;5075502;28;20437;-75
2023/04/06 07:59:25;;;;;;;7.93;6.37;;;25.30;21.30;;;;;;5075274;28;20493;-72
2023/04/06 08:01:52;;;;;;;7.07;6.37;;;26.70;20.80;;;;;;5075554;28;20914;-72
2023/04/06 08:04:19;;;;;;;8.57;6.93;;;28.20;18.20;;;;;;5075130;28;21058;-72
2023/04/06 08:06:46;;;;;;;7.43;6.13;;;29.20;16.50;;;;;;5075173;28;20444;-72
2023/04/06 08:09:13;;;;;;;8.77;6.67;;;28.00;15.70;;;;;;5074944;28;20503;-72
2023/04/06 08:11:41;;;;;;;7.90;6.10;;;27.90;16.80;;;;;;5075415;28;20443;-72
2023/04/06 08:14:08;;;;;;;6.57;5.87;;;29.50;16.30;;;;;;5075269;28;20484;-72
2023/04/06 08:16:36;;;;;;;8.20;7.20;;;31.00;15.00;;;;;;5075231;28;20444;-73
2023/04/06 08:19:04;;;;;;;7.10;5.63;;;32.50;13.90;;;;;;5075322;28;20440;-73
2023/04/06 08:21:31;;;;;;;9.73;5.97;;;33.10;12.80;;;;;;5075063;28;20455;-73
2023/04/06 08:23:58;;;;;;;9.60;6.40;;;33.90;12.30;;;;;;5074899;28;20490;-73
2023/04/06 08:26:25;;;;;;;7.50;5.70;;;34.80;10.80;;;;;;5074865;28;20500;-74
2023/04/06 08:28:52;;;;;;;6.70;5.00;;;35.50;11.30;;;;;;5075031;28;20436;-73
2023/04/06 08:31:19;;;;;;;9.30;5.60;;;35.90;10.20;;;;;;5074702;28;20497;-73
2023/04/06 08:33:48;;;;;;;6.53;5.83;;;36.50;10.70;;;;;;5074833;28;20464;-74
2023/04/06 08:36:18;;;;;;;10.40;7.50;;;37.00;9.40;;;;;;5074659;28;20529;-73
2023/04/06 08:38:45;;;;;;;9.00;6.23;;;37.50;9.10;;;;;;5075101;28;20782;-74
2023/04/06 08:41:12;;;;;;;8.93;6.73;;;38.00;9.00;;;;;;5074813;28;20432;-73
2023/04/06 08:43:44;;;;;;;7.63;6.60;;;38.50;8.40;;;;;;5074489;28;20440;-73
2023/04/06 08:46:12;;;;;;;7.70;6.17;;;39.00;8.20;;;;;;5074364;28;20432;-74
2023/04/06 08:48:41;;;;;;;5.90;5.40;;;39.40;7.60;;;;;;5074275;28;20983;-73
2023/04/06 08:51:09;;;;;;;6.70;5.37;;;40.00;7.70;;;;;;5074624;28;20523;-73
2023/04/06 08:53:36;;;;;;;7.47;6.30;;;40.50;7.70;;;;;;5074280;28;20468;-73
2023/04/06 08:56:05;;;;;;;6.30;5.67;;;41.00;7.50;;;;;;5074332;28;20440;-73
2023/04/06 08:58:35;;;;;;;7.40;6.60;;;41.40;7.50;;;;;;5074466;28;20440;-73
2023/04/06 09:01:03;;;;;;;9.80;6.13;;;41.60;6.60;;;;;;5074492;28;20448;-74
2023/04/06 09:03:31;;;;;;;8.07;6.87;;;41.70;6.60;;;;;;5074413;28;20513;-74
2023/04/06 09:05:59;;;;;;;7.43;6.73;;;41.80;6.50;;;;;;5074290;28;20441;-74
2023/04/06 09:08:27;;;;;;;14.60;7.93;;;42.20;5.80;;;;;;5074046;28;20432;-73
2023/04/06 09:10:54;;;;;;;7.83;7.03;;;41.80;5.40;;;;;;5073061;28;20517;-73
2023/04/06 09:13:21;;;;;;;7.20;6.50;;;40.40;5.30;;;;;;5074162;28;20458;-74
2023/04/06 09:15:58;;;;;;;8.50;6.40;;;39.10;5.10;;;;;;5073807;28;20519;-73
2023/04/06 09:18:29;;;;;;;7.57;6.87;;;35.90;5.70;;;;;;5074156;28;20517;-73
2023/04/06 09:21:02;;;;;;;7.70;6.90;;;32.10;7.10;;;;;;5074144;28;20440;-73
2023/04/06 09:23:30;;;;;;;8.90;7.13;;;29.10;8.00;;;;;;5073900;28;20855;-73
2023/04/06 09:26:09;;;;;;;12.77;6.83;;;26.60;9.80;;;;;;5073499;28;20471;-74
2023/04/06 09:28:47;;;;;;;8.57;6.87;;;24.50;11.00;;;;;;5073923;28;20440;-73
2023/04/06 09:31:15;;;;;;;8.83;7.37;;;23.40;12.30;;;;;;5073581;28;20436;-72
2023/04/06 09:33:43;;;;;;;8.93;7.50;;;24.10;13.70;;;;;;5073499;28;20439;-73
2023/04/06 09:36:10;;;;;;;9.00;6.60;;;27.50;11.50;;;;;;5073455;28;20497;-74
2023/04/06 09:38:52;;;;;;;8.47;6.67;;;31.30;10.20;;;;;;5073622;28;20436;-73
2023/04/06 09:41:23;;;;;;;8.50;7.27;;;33.10;8.00;;;;;;5073141;28;20461;-74
2023/04/06 09:43:51;;;;;;;7.13;6.33;;;34.30;8.30;;;;;;5073271;28;20496;-74
2023/04/06 09:46:23;;;;;;;6.60;5.53;;;36.20;6.90;;;;;;5073306;28;20910;-74
2023/04/06 09:48:56;;;;;;;7.90;6.70;;;37.80;6.70;;;;;;5072883;28;20440;-74
2023/04/06 09:51:25;;;;;;;7.23;6.40;;;36.60;6.20;;;;;;5073149;28;20432;-73
2023/04/06 09:54:00;;;;;;;8.23;6.47;;;35.60;5.70;;;;;;5073087;28;20463;-74
2023/04/06 09:56:32;;;;;;;6.80;6.20;;;35.60;5.90;;;;;;5073468;28;20439;-74
2023/04/06 09:59:09;;;;;;;7.00;6.30;;;36.10;5.60;;;;;;5073001;28;20454;-74
2023/04/06 10:01:38;;;;;;;8.00;7.20;;;36.40;4.70;;;;;;5073414;28;20436;-74
2023/04/06 10:04:14;;;;;;;8.10;7.30;;;33.50;5.50;;;;;;5073237;28;20582;-73
2023/04/06 10:06:41;;;;;;;7.27;6.03;;;30.70;7.30;;;;;;5073279;28;20766;-73
2023/04/06 10:09:10;;;;;;;8.70;7.13;;;30.20;9.50;;;;;;5073195;28;20852;-73
2023/04/06 10:11:38;;;;;;;9.93;7.57;;;30.10;8.50;;;;;;5073531;28;20447;-73
2023/04/06 10:14:08;;;;;;;7.77;6.97;;;31.40;10.10;;;;;;5073065;28;20501;-74
2023/04/06 10:16:35;;;;;;;8.97;8.07;;;34.40;8.80;;;;;;5072935;28;20515;-74
2023/04/06 10:19:10;;;;;;;8.20;7.07;;;37.20;7.00;;;;;;5073258;28;20440;-74
2023/04/06 10:21:39;;;;;;;7.23;6.53;;;;;;;;;;5072490;28;20444;-75
2023/04/06 10:24:12;;;;;;;7.23;6.53;;;;;;;;;;5073105;28;20424;-75
2023/04/06 10:26:39;;;;;;;7.33;6.60;;;;;;;;;;5073250;28;20454;-75
2023/04/06 10:29:07;;;;;;;7.27;6.47;;;;;;;;;;5072824;28;20536;-74
2023/04/06 10:31:34;;;;;;;6.80;6.10;;;39.20;5.80;;;;;;5073031;28;20435;-75
2023/04/06 10:34:02;;;;;;;7.23;6.63;;;44.30;4.50;;;;;;5072916;28;20911;-75
2023/04/06 10:36:32;;;;;;;6.63;5.90;;;44.90;3.50;;;;;;5072844;28;20432;-74
2023/04/06 10:39:02;;;;;;;7.17;6.50;;;43.80;3.50;;;;;;5073123;28;20436;-75
2023/04/06 10:41:35;;;;;;;7.43;6.70;;;40.80;3.10;;;;;;5072554;28;20428;-74
2023/04/06 10:44:02;;;;;;;7.13;6.43;;;37.00;3.80;;;;;;5072782;28;20503;-74
2023/04/06 10:46:31;;;;;;;6.73;6.03;;;33.60;5.40;;;;;;5072883;28;20440;-74
2023/04/06 10:48:58;;;;;;;7.70;6.87;;;30.80;6.80;;;;;;5072764;28;20938;-73
2023/04/06 10:51:29;;;;;;;6.67;6.07;;;28.50;8.00;;;;;;5072877;28;20494;-73
2023/04/06 10:53:57;;;;;;;7.83;7.03;;;26.60;9.80;;;;;;5072263;28;21015;-73
2023/04/06 10:56:27;;;;;;;8.40;6.70;;;25.10;10.30;;;;;;5072122;28;20483;-73
2023/04/06 10:58:56;;;;;;;7.70;6.60;;;23.80;11.00;;;;;;5072693;28;20440;-73
2023/04/06 11:01:26;;;;;;;10.13;6.40;;;23.50;12.60;;;;;;5072543;28;20542;-73
2023/04/06 11:03:55;;;;;;;9.20;6.60;;;22.80;11.80;;;;;;5072677;28;20436;-73
2023/04/06 11:06:23;;;;;;;6.67;5.97;;;21.90;12.80;;;;;;5071961;28;20436;-72
2023/04/06 11:08:51;;;;;;;7.27;5.50;;;21.30;13.30;;;;;;5071986;28;20471;-73
2023/04/06 11:11:19;;;;;;;8.20;6.00;;;21.20;12.40;;;;;;5071788;28;20472;-72
2023/04/06 11:13:49;;;;;;;5.77;4.77;;;20.80;13.10;;;;;;5072026;28;20467;-73
2023/04/06 11:16:20;;;;;;;8.43;5.50;;;22.40;15.20;;;;;;5071299;28;21094;-73
2023/04/06 11:18:51;;;;;;;7.90;5.47;;;26.80;13.00;;;;;;5072754;28;20842;-73
2023/04/06 11:21:19;;;;;;;9.23;5.70;;;26.80;11.10;;;;;;5072499;28;20513;-73
2023/04/06 11:23:46;;;;;;;7.83;5.80;;;26.30;11.30;;;;;;5071811;28;20787;-74
2023/04/06 11:26:13;;;;;;;5.43;4.93;;;27.70;9.20;;;;;;5071628;28;20440;-73
2023/04/06 11:28:41;;;;;;;7.50;5.00;;;26.70;10.00;;;;;;5072327;28;20440;-73
2023/04/06 11:31:09;;;;;;;7.30;5.23;;;26.30;9.90;;;;;;5072589;28;20435;-73
2023/04/06 11:33:38;;;;;;;6.40;5.10;;;25.10;10.10;;;;;;5073557;28;21248;-73
2023/04/06 11:36:06;;;;;;;5.70;5.03;;;24.00;11.50;;;;;;5075599;28;20476;-73
2023/04/06 11:38:34;;;;;;;6.90;4.83;;;25.50;11.10;;;;;;5074999;28;20438;-75
2023/04/06 11:41:03;;;;;;;6.37;4.70;;;29.50;9.40;;;;;;5072544;28;20779;-73
2023/04/06 11:43:32;;;;;;;4.90;4.13;;;32.50;8.00;;;;;;5072924;28;20482;-74
2023/04/06 11:46:03;;;;;;;5.73;4.40;;;33.70;7.10;;;;;;5075025;28;20435;-73
2023/04/06 11:48:31;;;;;;;5.93;5.03;;;31.80;5.80;;;;;;5075819;28;21007;-74
2023/04/06 11:51:00;;;;;;;6.30;5.37;;;29.40;6.60;;;;;;5075056;28;20489;-73
2023/04/06 11:53:28;;;;;;;5.93;5.03;;;27.20;8.40;;;;;;5074631;28;20937;-73
2023/04/06 11:55:59;;;;;;;5.77;5.10;;;25.40;9.20;;;;;;5075362;28;20467;-73
2023/04/06 11:58:28;;;;;;;6.97;5.40;;;23.90;10.20;;;;;;5075483;28;20439;-74
2023/04/06 12:01:03;;;;;;;6.20;5.33;;;22.80;10.40;;;;;;5075488;28;20432;-72
2023/04/06 12:03:30;;;;;;;6.47;5.70;;;22.20;11.30;;;;;;5074630;28;20475;-72
2023/04/06 12:05:59;;;;;;;5.47;4.73;;;21.90;11.20;;;;;;5074061;28;20436;-73
2023/04/06 12:08:29;;;;;;;6.20;5.00;;;21.60;12.10;;;;;;5074606;28;20519;-73
2023/04/06 12:10:59;;;;;;;5.20;4.20;;;21.10;11.50;;;;;;5074942;28;20468;-73
2023/04/06 12:13:27;;;;;;;7.40;4.87;;;20.50;12.10;;;;;;5074449;28;20837;-73
2023/04/06 12:15:54;;;;;;;5.57;4.93;;;20.40;12.10;;;;;;5073508;28;20479;-73
2023/04/06 12:18:21;;;;;;;9.43;5.50;;;21.00;13.20;;;;;;5074876;28;20494;-73
2023/04/06 12:20:50;;;;;;;5.33;4.60;;;22.20;14.00;;;;;;5074839;28;20439;-73
2023/04/06 12:23:21;;;;;;;6.77;4.13;;;22.30;10.90;;;;;;5074987;28;20432;-73
2023/04/06 12:25:52;;;;;;;5.90;4.10;;;21.50;10.70;;;;;;5075204;28;20475;-73
2023/04/06 12:28:20;;;;;;;8.07;4.93;;;21.10;11.50;;;;;;5075147;28;20515;-73
2023/04/06 12:30:47;;;;;;;5.73;4.50;;;20.60;11.50;;;;;;5075022;28;20444;-73
2023/04/06 12:33:14;;;;;;;5.67;4.23;;;20.90;13.60;;;;;;5074429;28;20440;-73
2023/04/06 12:35:41;;;;;;;5.17;4.10;;;21.50;13.50;;;;;;5074966;28;20479;-73
2023/04/06 12:38:08;;;;;;;8.33;5.17;;;21.60;12.30;;;;;;5075008;28;20436;-73
2023/04/06 12:40:39;;;;;;;6.83;4.40;;;21.30;12.80;;;;;;5074922;28;20432;-72
2023/04/06 12:43:07;;;;;;;6.37;5.03;;;20.80;13.10;;;;;;5074883;28;20441;-72
2023/04/06 12:45:39;;;;;;;8.20;5.00;;;20.40;12.70;;;;;;5073580;28;20537;-72
2023/04/06 12:48:06;;;;;;;6.67;5.33;;;19.90;13.00;;;;;;5074761;28;20443;-72
2023/04/06 12:50:37;;;;;;;5.50;4.50;;;19.50;13.30;;;;;;5074325;28;20436;-72
2023/04/06 12:53:05;;;;;;;6.27;4.77;;;19.20;13.40;;;;;;5074729;28;20440;-72
2023/04/06 12:55:36;;;;;;;5.97;4.53;;;18.90;14.10;;;;;;5074350;28;20498;-72
2023/04/06 12:58:04;;;;;;;6.70;5.17;;;18.60;14.10;;;;;;5074240;28;20814;-72
2023/04/06 13:00:31;;;;;;;6.73;5.50;;;18.30;15.40;;;;;;5074341;28;20497;-72